Time;durP1;ratioP1;P1;durP2;ratioP2;P2;SDS_P1;SDS_P2;PMS_P1;PMS_P2;Temp;Humidity;BMP_temperature;BMP_pressure;BME280_temperature;BME280_humidity;BME280_pressure;Samples;Min_cycle;Max_cycle;Signal;HPM_P1;HPM_P2
2022/01/14 00:00:10;;;;;;;34.28;8.32;;;28.40;75.60;;;;;;5066763;28;20025;-56
2022/01/14 00:02:37;;;;;;;59.70;10.02;;;28.40;75.80;;;;;;5066545;28;20046;-53
2022/01/14 00:05:04;;;;;;;98.85;12.20;;;28.40;75.80;;;;;;5066495;28;20028;-55
2022/01/14 00:07:30;;;;;;;49.45;9.73;;;28.40;75.90;;;;;;5066965;28;20029;-49
2022/01/14 00:09:58;;;;;;;73.28;10.63;;;28.40;76.00;;;;;;5065761;28;20063;-51
2022/01/14 00:12:28;;;;;;;41.17;9.77;;;28.30;75.90;;;;;;5048821;28;20032;-55
2022/01/14 00:15:23;;;;;;;31.90;8.15;;;28.40;76.00;;;;;;5066542;28;20313;-52
2022/01/14 00:17:47;;;;;;;29.27;8.35;;;28.40;76.00;;;;;;5066695;28;20063;-50
2022/01/14 00:20:14;;;;;;;58.92;9.30;;;28.30;76.00;;;;;;5065654;28;20322;-54
2022/01/14 00:22:40;;;;;;;36.25;8.48;;;28.30;76.10;;;;;;5048486;28;20024;-52
2022/01/14 00:33:16;;;;;;;38.92;7.93;;;28.30;76.20;;;;;;5066627;28;20032;-58
2022/01/14 00:35:43;;;;;;;34.70;7.70;;;28.30;76.30;;;;;;5066058;28;20048;-53
2022/01/14 00:38:11;;;;;;;26.13;6.63;;;28.30;76.20;;;;;;5066530;28;20359;-54
2022/01/14 00:40:39;;;;;;;21.63;6.45;;;28.30;76.10;;;;;;5065809;28;20032;-49
2022/01/14 00:43:08;;;;;;;21.25;6.72;;;28.30;76.00;;;;;;5048574;28;20040;-61
2022/01/14 00:45:37;;;;;;;30.38;6.93;;;28.30;75.90;;;;;;5064778;28;20032;-54
2022/01/14 00:48:05;;;;;;;23.40;7.00;;;28.30;75.90;;;;;;5065883;28;20033;-54
2022/01/14 00:50:33;;;;;;;22.02;6.78;;;28.30;75.60;;;;;;5065704;28;20302;-48
2022/01/14 00:53:03;;;;;;;20.88;6.10;;;28.20;75.30;;;;;;5066161;28;20205;-57
2022/01/14 00:55:42;;;;;;;103.32;10.77;;;28.20;75.20;;;;;;5065074;28;20071;-51
2022/01/14 01:00:57;;;;;;;30.92;7.70;;;28.20;75.00;;;;;;5057517;28;20020;-57
2022/01/14 01:03:25;;;;;;;28.40;6.68;;;28.30;74.90;;;;;;5048313;28;20028;-53
2022/01/14 01:06:01;;;;;;;28.33;6.97;;;28.20;74.70;;;;;;5065375;28;20294;-54
2022/01/14 01:08:30;;;;;;;22.83;6.30;;;28.20;74.70;;;;;;5047482;28;20224;-52
2022/01/14 01:10:57;;;;;;;66.82;7.90;;;28.20;74.40;;;;;;5030897;28;20017;-58
2022/01/14 01:13:29;;;;;;;25.08;6.78;;;28.20;74.40;;;;;;5064641;28;20152;-51
2022/01/14 01:15:56;;;;;;;30.65;6.63;;;28.20;74.30;;;;;;5064273;28;20025;-49
2022/01/14 01:18:23;;;;;;;26.08;6.80;;;28.20;74.40;;;;;;5063331;28;20021;-61
2022/01/14 01:20:51;;;;;;;18.95;5.72;;;28.20;74.30;;;;;;5064051;28;20321;-55
2022/01/14 01:23:20;;;;;;;19.17;6.20;;;28.10;74.10;;;;;;5018730;28;20036;-55
2022/01/14 01:25:53;;;;;;;16.70;5.97;;;28.10;74.10;;;;;;5059867;28;20329;-51
2022/01/14 01:28:22;;;;;;;19.17;6.53;;;28.10;74.20;;;;;;5037362;28;20043;-53
2022/01/14 01:31:34;;;;;;;74.90;7.70;;;28.10;74.00;;;;;;5060510;28;20065;-55
2022/01/14 01:33:52;;;;;;;51.85;7.07;;;28.10;73.90;;;;;;5048621;28;20084;-54
2022/01/14 01:36:21;;;;;;;80.68;8.65;;;28.10;74.50;;;;;;5040675;28;20293;-55
2022/01/14 01:38:48;;;;;;;31.92;6.82;;;28.10;74.70;;;;;;5062813;28;20214;-55
2022/01/14 01:41:17;;;;;;;18.00;6.03;;;28.00;74.30;;;;;;5038011;28;20025;-53
2022/01/14 01:43:50;;;;;;;16.38;6.00;;;28.00;74.30;;;;;;5024971;28;20025;-55
2022/01/14 01:46:20;;;;;;;14.65;6.60;;;28.00;74.00;;;;;;5043531;28;20029;-56
2022/01/14 01:48:51;;;;;;;15.45;6.10;;;28.00;74.00;;;;;;5062848;28;20025;-55
2022/01/14 01:51:19;;;;;;;8.82;5.55;;;28.00;74.00;;;;;;5061269;28;20020;-52
2022/01/14 01:53:54;;;;;;;13.98;6.07;;;28.00;73.80;;;;;;5062147;28;20024;-53
2022/01/14 01:56:24;;;;;;;15.57;5.90;;;28.00;73.90;;;;;;5049888;28;20029;-55
2022/01/14 01:58:50;;;;;;;18.58;6.82;;;28.00;73.90;;;;;;5064973;28;20013;-51
2022/01/14 02:01:18;;;;;;;18.55;6.07;;;28.00;73.70;;;;;;5046930;28;20025;-52
2022/01/14 02:03:45;;;;;;;18.65;6.10;;;28.00;73.70;;;;;;5063516;28;20028;-54
2022/01/14 02:06:12;;;;;;;15.48;6.15;;;28.00;73.70;;;;;;5064502;28;20086;-51
2022/01/14 02:08:40;;;;;;;12.27;6.20;;;27.90;73.60;;;;;;5046758;28;20026;-56
2022/01/14 02:11:08;;;;;;;24.08;6.53;;;28.00;73.80;;;;;;5063824;28;20021;-57
2022/01/14 02:13:35;;;;;;;17.63;6.20;;;27.90;73.70;;;;;;5041166;28;20041;-51
2022/01/14 02:24:20;;;;;;;9.88;5.82;;;28.00;73.40;;;;;;5064388;28;20285;-51
2022/01/14 02:26:55;;;;;;;17.27;7.50;;;28.00;73.40;;;;;;5052150;28;20119;-56
2022/01/14 02:29:24;;;;;;;15.27;8.82;;;28.00;73.50;;;;;;5053854;28;20077;-54
2022/01/14 02:31:50;;;;;;;14.88;12.13;;;28.00;73.40;;;;;;5075062;28;20282;-54
2022/01/14 02:34:17;;;;;;;15.00;9.52;;;28.00;73.30;;;;;;5063899;28;20052;-58
2022/01/14 02:36:47;;;;;;;18.05;9.80;;;28.00;73.30;;;;;;5061713;28;20416;-55
2022/01/14 02:39:16;;;;;;;15.38;8.15;;;28.00;73.20;;;;;;5056320;28;20023;-53
2022/01/14 02:41:45;;;;;;;15.07;8.00;;;28.00;73.10;;;;;;5064062;28;20027;-47
2022/01/14 02:44:18;;;;;;;16.05;6.55;;;28.00;73.00;;;;;;5062635;28;20028;-45
2022/01/14 02:46:54;;;;;;;13.98;7.10;;;28.00;73.00;;;;;;5062534;28;20234;-44
2022/01/14 02:49:22;;;;;;;17.58;7.25;;;28.00;73.00;;;;;;5063730;28;20021;-47
2022/01/14 02:51:49;;;;;;;17.52;6.78;;;28.00;73.10;;;;;;5061212;28;20017;-49
2022/01/14 02:54:21;;;;;;;15.75;6.95;;;28.00;73.00;;;;;;5063338;28;20028;-51
2022/01/14 02:56:52;;;;;;;24.70;6.57;;;28.00;73.00;;;;;;5063879;28;20021;-50
2022/01/14 02:59:20;;;;;;;21.95;7.03;;;28.00;73.00;;;;;;5056611;28;20028;-48
2022/01/14 03:01:49;;;;;;;22.77;7.55;;;28.00;73.00;;;;;;5063748;28;20214;-48
2022/01/14 03:04:18;;;;;;;28.52;7.03;;;28.00;73.10;;;;;;5063524;28;20182;-50
2022/01/14 03:06:45;;;;;;;23.77;7.03;;;28.00;73.10;;;;;;5045750;28;20025;-51
2022/01/14 03:09:12;;;;;;;16.95;6.30;;;28.00;73.10;;;;;;5063446;28;20036;-48
2022/01/14 03:11:49;;;;;;;20.45;6.25;;;28.00;72.90;;;;;;5063640;28;20408;-52
2022/01/14 03:14:24;;;;;;;16.33;6.20;;;27.90;72.80;;;;;;5063227;28;20261;-46
2022/01/14 03:16:54;;;;;;;16.58;5.93;;;28.00;72.90;;;;;;5063276;28;20061;-48
2022/01/14 03:19:25;;;;;;;15.52;5.90;;;28.00;72.90;;;;;;5062279;28;20332;-53
2022/01/14 03:22:04;;;;;;;12.35;5.32;;;28.00;72.80;;;;;;5065438;28;20302;-49
2022/01/14 03:27:03;;;;;;;11.80;6.05;;;28.00;72.90;;;;;;5060750;28;20025;-45
2022/01/14 03:29:30;;;;;;;14.48;5.90;;;27.90;72.80;;;;;;5060368;28;20017;-47
2022/01/14 03:31:57;;;;;;;9.07;5.45;;;28.00;72.90;;;;;;5056217;28;20080;-46
2022/01/14 03:34:24;;;;;;;10.73;5.93;;;28.00;72.90;;;;;;5066981;28;20187;-52
2022/01/14 03:36:50;;;;;;;11.77;5.88;;;27.90;73.10;;;;;;5067655;28;20176;-55
2022/01/14 03:39:18;;;;;;;10.43;5.25;;;27.90;73.10;;;;;;5067111;28;20277;-57
2022/01/14 03:41:45;;;;;;;10.23;5.78;;;27.90;73.20;;;;;;5067476;28;20036;-53
2022/01/14 03:44:12;;;;;;;11.88;5.65;;;28.00;73.50;;;;;;5066564;28;20080;-54
2022/01/14 03:46:39;;;;;;;9.38;5.18;;;28.00;73.60;;;;;;5066249;28;20067;-55
2022/01/14 03:49:06;;;;;;;8.77;5.20;;;27.90;73.60;;;;;;5066996;28;20083;-55
2022/01/14 03:51:32;;;;;;;10.63;5.38;;;28.00;73.80;;;;;;5067253;28;20127;-53
2022/01/14 03:53:59;;;;;;;9.35;5.38;;;28.00;73.90;;;;;;5063210;28;20024;-53
2022/01/14 03:56:25;;;;;;;8.35;5.22;;;28.00;73.90;;;;;;5064998;28;20047;-47
2022/01/14 03:58:53;;;;;;;8.43;5.10;;;27.90;73.90;;;;;;5067096;28;20329;-50
2022/01/14 04:01:21;;;;;;;9.05;5.20;;;27.90;73.90;;;;;;5066655;28;20033;-45
2022/01/14 04:03:49;;;;;;;9.38;5.57;;;27.90;73.90;;;;;;5067000;28;20063;-46
2022/01/14 04:06:17;;;;;;;12.90;5.50;;;27.90;74.00;;;;;;5066792;28;20035;-47
2022/01/14 04:08:44;;;;;;;10.13;5.50;;;28.00;74.10;;;;;;5065282;28;20214;-51
2022/01/14 04:11:12;;;;;;;9.73;5.30;;;27.90;74.00;;;;;;5066255;28;20337;-53
2022/01/14 04:13:49;;;;;;;9.30;5.32;;;27.90;74.10;;;;;;5066740;28;20024;-53
2022/01/14 04:16:18;;;;;;;15.13;5.43;;;27.90;74.10;;;;;;5066361;28;20036;-50
2022/01/14 04:18:45;;;;;;;9.63;5.07;;;27.90;74.10;;;;;;5066335;28;20013;-55
2022/01/14 04:21:12;;;;;;;9.10;5.32;;;27.90;73.90;;;;;;5048255;28;20075;-51
2022/01/14 04:23:38;;;;;;;8.65;5.20;;;27.90;73.80;;;;;;5046420;28;20017;-45
2022/01/14 04:26:05;;;;;;;8.73;4.90;;;27.90;73.60;;;;;;5046445;28;20017;-50
2022/01/14 04:28:36;;;;;;;12.75;5.15;;;27.90;73.40;;;;;;5046319;28;20084;-51
2022/01/14 04:31:07;;;;;;;17.45;5.53;;;27.90;73.30;;;;;;5046258;28;20025;-54
2022/01/14 04:33:35;;;;;;;11.57;5.18;;;27.90;73.00;;;;;;5045080;28;20017;-47
2022/01/14 04:36:03;;;;;;;13.75;5.10;;;27.90;72.90;;;;;;5044508;28;20321;-48
2022/01/14 04:38:31;;;;;;;10.90;5.15;;;27.90;72.90;;;;;;5044621;28;20037;-45
2022/01/14 04:40:58;;;;;;;9.23;5.10;;;27.90;72.80;;;;;;5044921;28;20013;-53
2022/01/14 04:43:25;;;;;;;12.70;5.05;;;27.90;72.60;;;;;;5045386;28;20028;-51
2022/01/14 04:48:22;;;;;;;9.13;4.80;;;27.90;72.50;;;;;;5046133;28;20334;-51
2022/01/14 04:50:52;;;;;;;10.30;5.10;;;27.90;72.30;;;;;;5045914;28;20093;-51
2022/01/14 04:53:20;;;;;;;13.48;5.18;;;27.80;72.20;;;;;;5045953;28;20070;-55
2022/01/14 04:55:48;;;;;;;7.90;4.90;;;27.80;72.20;;;;;;5045706;28;20080;-48
2022/01/14 04:58:14;;;;;;;8.63;5.13;;;27.90;72.20;;;;;;5046196;28;20342;-48
2022/01/14 05:00:41;;;;;;;7.05;4.50;;;27.80;72.20;;;;;;5045846;28;20017;-47
2022/01/14 05:03:08;;;;;;;8.70;4.65;;;27.80;72.20;;;;;;5046248;28;20021;-44
2022/01/14 05:05:38;;;;;;;8.95;4.97;;;27.90;72.40;;;;;;5045617;28;20036;-43
2022/01/14 05:08:10;;;;;;;8.35;4.82;;;27.90;72.50;;;;;;5046064;28;20052;-52
2022/01/14 05:10:59;;;;;;;6.57;5.05;;;27.80;72.40;;;;;;5045572;28;20026;-53
2022/01/14 05:13:25;;;;;;;8.10;4.85;;;27.80;72.50;;;;;;5045351;28;20056;-55
2022/01/14 05:15:53;;;;;;;7.53;4.95;;;27.80;72.70;;;;;;5045397;28;20017;-57
2022/01/14 05:18:20;;;;;;;8.15;5.00;;;27.80;72.80;;;;;;5045241;28;20318;-57
2022/01/14 05:20:46;;;;;;;8.35;4.97;;;27.80;72.90;;;;;;5045451;28;20022;-56
2022/01/14 05:23:13;;;;;;;8.20;5.05;;;27.80;73.00;;;;;;5045886;28;20025;-60
2022/01/14 05:25:39;;;;;;;11.48;5.15;;;27.80;73.10;;;;;;5045276;28;20021;-54
2022/01/14 05:28:06;;;;;;;8.60;4.90;;;27.80;73.40;;;;;;5045779;28;20085;-51
2022/01/14 05:30:33;;;;;;;8.07;4.65;;;27.80;73.60;;;;;;5060835;28;20044;-46
2022/01/14 05:32:59;;;;;;;9.02;5.25;;;27.80;73.90;;;;;;5045086;28;20072;-51
2022/01/14 05:35:27;;;;;;;10.52;5.72;;;27.80;74.00;;;;;;5044563;28;20083;-47
2022/01/14 05:37:54;;;;;;;9.23;4.80;;;27.80;74.10;;;;;;5045582;28;20029;-49
2022/01/14 05:40:25;;;;;;;8.80;5.05;;;27.80;74.30;;;;;;5044798;28;20019;-45
2022/01/14 05:42:52;;;;;;;8.05;4.95;;;27.80;74.30;;;;;;5045392;28;20052;-45
2022/01/14 05:45:18;;;;;;;8.88;5.50;;;27.80;74.50;;;;;;5044249;28;20036;-50
2022/01/14 05:47:46;;;;;;;9.10;5.38;;;27.70;74.50;;;;;;5045259;28;20029;-49
2022/01/14 05:50:15;;;;;;;6.95;4.82;;;27.80;74.60;;;;;;5044965;28;20151;-47
2022/01/14 05:52:43;;;;;;;8.80;5.13;;;27.70;74.60;;;;;;5045123;28;20324;-47
2022/01/14 05:55:11;;;;;;;10.35;5.43;;;27.70;74.80;;;;;;5044543;28;20033;-47
2022/01/14 05:57:38;;;;;;;10.82;5.10;;;27.70;74.80;;;;;;5045197;28;20029;-52
2022/01/14 06:00:07;;;;;;;7.03;5.25;;;27.70;74.80;;;;;;5044618;28;20022;-47
2022/01/14 06:02:34;;;;;;;8.85;5.05;;;27.70;74.90;;;;;;5044895;28;20028;-47
2022/01/14 06:05:00;;;;;;;6.45;4.55;;;27.70;75.00;;;;;;5044740;28;20021;-46
2022/01/14 06:07:27;;;;;;;9.40;5.20;;;27.70;75.10;;;;;;5044911;28;20032;-47
2022/01/14 06:09:54;;;;;;;9.65;5.10;;;27.70;75.10;;;;;;5044446;28;20028;-46
2022/01/14 06:12:20;;;;;;;11.35;5.28;;;27.70;75.30;;;;;;5044689;28;20021;-50
2022/01/14 06:14:47;;;;;;;10.00;5.40;;;27.70;75.40;;;;;;5044356;28;20029;-46
2022/01/14 06:17:13;;;;;;;9.70;5.65;;;27.70;75.40;;;;;;5044494;28;20022;-50
2022/01/14 06:19:40;;;;;;;8.75;5.10;;;27.70;75.40;;;;;;5044265;28;20183;-55
2022/01/14 06:22:06;;;;;;;9.65;5.38;;;27.70;76.00;;;;;;5044570;28;20017;-54
2022/01/14 06:24:33;;;;;;;8.15;5.20;;;27.70;75.50;;;;;;5044181;28;20071;-47
2022/01/14 06:27:01;;;;;;;8.20;5.20;;;27.60;75.60;;;;;;5044469;28;20237;-48
2022/01/14 06:29:27;;;;;;;8.05;5.13;;;27.60;75.50;;;;;;5044101;28;20047;-56
2022/01/14 06:31:54;;;;;;;6.90;4.72;;;27.60;75.60;;;;;;5044150;28;20030;-51
2022/01/14 06:34:20;;;;;;;12.23;5.32;;;27.60;75.50;;;;;;5043972;28;20063;-49
2022/01/14 06:36:47;;;;;;;6.38;4.90;;;27.60;75.50;;;;;;5044165;28;20041;-44
2022/01/14 06:39:13;;;;;;;12.90;5.20;;;27.60;75.60;;;;;;5043855;28;20329;-45
2022/01/14 06:41:40;;;;;;;8.52;4.95;;;27.60;75.60;;;;;;5044182;28;20051;-47
2022/01/14 06:44:07;;;;;;;10.57;5.00;;;27.60;75.60;;;;;;5043901;28;20017;-41
2022/01/14 06:46:34;;;;;;;11.25;5.07;;;27.60;75.50;;;;;;5043971;28;20330;-51
2022/01/14 06:49:01;;;;;;;7.65;5.32;;;27.60;75.50;;;;;;5043969;28;20321;-41
2022/01/14 06:51:27;;;;;;;7.80;4.90;;;27.60;75.60;;;;;;5044008;28;20230;-45
2022/01/14 06:53:54;;;;;;;8.40;5.53;;;27.50;75.60;;;;;;5043876;28;20337;-49
2022/01/14 06:56:20;;;;;;;10.15;5.60;;;27.50;75.50;;;;;;5043792;28;20326;-42
2022/01/14 06:58:47;;;;;;;8.85;5.30;;;27.50;75.50;;;;;;5043867;28;20368;-52
2022/01/14 07:01:14;;;;;;;11.30;5.05;;;27.50;75.50;;;;;;5043710;28;20029;-46
2022/01/14 07:03:40;;;;;;;12.80;5.20;;;27.50;75.60;;;;;;5043834;28;20013;-49
2022/01/14 07:06:07;;;;;;;8.25;5.00;;;27.50;75.60;;;;;;5043728;28;20049;-49
2022/01/14 07:08:33;;;;;;;10.75;5.72;;;27.50;76.10;;;;;;5043755;28;20040;-42
2022/01/14 07:11:00;;;;;;;11.85;5.35;;;27.50;75.60;;;;;;5043566;28;20014;-48
2022/01/14 07:13:26;;;;;;;13.68;5.88;;;27.50;75.60;;;;;;5043658;28;20041;-46
2022/01/14 07:15:53;;;;;;;15.35;5.50;;;27.40;75.90;;;;;;5043507;28;20017;-43
2022/01/14 07:18:20;;;;;;;12.52;5.43;;;27.30;76.20;;;;;;5043483;28;20369;-47
2022/01/14 07:20:46;;;;;;;12.45;5.43;;;27.20;76.50;;;;;;5043651;28;20063;-47
2022/01/14 07:23:13;;;;;;;10.15;5.20;;;27.20;76.70;;;;;;5044064;28;20049;-48
2022/01/14 07:25:39;;;;;;;11.65;5.78;;;27.10;76.80;;;;;;5043482;28;20022;-46
2022/01/14 07:28:06;;;;;;;10.93;5.30;;;27.10;77.00;;;;;;5043959;28;20026;-45
2022/01/14 07:30:33;;;;;;;9.07;5.55;;;27.00;77.00;;;;;;5043514;28;20048;-47
2022/01/14 07:32:59;;;;;;;8.30;5.28;;;27.00;77.10;;;;;;5043880;28;20217;-43
2022/01/14 07:35:26;;;;;;;8.13;5.38;;;27.00;77.20;;;;;;5043240;28;20052;-54
2022/01/14 07:37:53;;;;;;;8.85;5.10;;;26.90;77.10;;;;;;5043879;28;20022;-49
2022/01/14 07:40:20;;;;;;;9.27;5.70;;;26.90;77.10;;;;;;5043352;28;20337;-47
2022/01/14 07:42:46;;;;;;;8.65;5.15;;;26.90;77.10;;;;;;5043848;28;20045;-47
2022/01/14 07:45:13;;;;;;;10.32;5.00;;;26.90;77.20;;;;;;5043426;28;20025;-42
2022/01/14 07:47:39;;;;;;;7.68;5.40;;;26.90;77.30;;;;;;5043618;28;20030;-46
2022/01/14 07:50:07;;;;;;;6.97;5.03;;;26.90;77.40;;;;;;5043386;28;20018;-49
2022/01/14 07:52:33;;;;;;;8.43;5.40;;;26.90;77.50;;;;;;5043713;28;20034;-45
2022/01/14 07:55:00;;;;;;;6.60;4.82;;;26.90;77.40;;;;;;5043130;28;20085;-41
2022/01/14 07:57:26;;;;;;;12.77;5.72;;;26.90;77.60;;;;;;5043646;28;20222;-48
2022/01/14 07:59:53;;;;;;;8.55;5.35;;;26.80;77.70;;;;;;5043277;28;20044;-44
2022/01/14 08:02:21;;;;;;;6.13;4.90;;;26.80;77.70;;;;;;5043041;28;20105;-48
2022/01/14 08:04:48;;;;;;;7.90;5.32;;;26.80;77.80;;;;;;5043153;28;20329;-48
2022/01/14 08:07:21;;;;;;;7.10;5.00;;;26.80;77.80;;;;;;5044026;28;20037;-47
2022/01/14 08:09:48;;;;;;;9.95;5.28;;;26.80;77.90;;;;;;5046636;28;20218;-44
2022/01/14 08:12:15;;;;;;;6.63;4.70;;;26.80;77.90;;;;;;5046933;28;20026;-47
2022/01/14 08:14:42;;;;;;;8.55;5.03;;;26.80;78.00;;;;;;5046677;28;20241;-48
2022/01/14 08:17:09;;;;;;;7.07;5.00;;;26.80;78.00;;;;;;5046739;28;20071;-44
2022/01/14 08:19:36;;;;;;;5.40;4.88;;;26.80;78.00;;;;;;5046698;28;20025;-42
2022/01/14 08:22:05;;;;;;;6.70;5.10;;;26.80;78.00;;;;;;5046626;28;20025;-45
2022/01/14 08:24:33;;;;;;;13.88;5.68;;;26.80;78.00;;;;;;5046417;28;20214;-47
2022/01/14 08:26:59;;;;;;;9.10;5.82;;;26.80;77.90;;;;;;5046477;28;20033;-46
2022/01/14 08:29:30;;;;;;;9.02;5.68;;;26.70;77.80;;;;;;5046429;28;20017;-52
2022/01/14 08:31:57;;;;;;;11.20;6.35;;;26.70;77.70;;;;;;5046369;28;20053;-44
2022/01/14 08:34:24;;;;;;;10.85;6.43;;;26.70;77.80;;;;;;5046237;28;20021;-50
2022/01/14 08:36:51;;;;;;;9.20;6.32;;;26.70;77.80;;;;;;5046416;28;20045;-44
2022/01/14 08:39:18;;;;;;;12.55;6.75;;;26.70;77.90;;;;;;5046184;28;20021;-45
2022/01/14 08:41:45;;;;;;;13.52;6.28;;;26.70;77.90;;;;;;5046253;28;20025;-43
2022/01/14 08:44:13;;;;;;;16.58;6.70;;;26.70;78.00;;;;;;5046115;28;20028;-48
2022/01/14 08:46:40;;;;;;;12.95;6.53;;;26.70;78.00;;;;;;5046069;28;20298;-46
2022/01/14 08:49:08;;;;;;;14.02;6.57;;;26.60;78.10;;;;;;5046114;28;20022;-44
2022/01/14 08:51:36;;;;;;;12.98;6.32;;;26.60;78.20;;;;;;5046073;28;20032;-51
2022/01/14 08:54:04;;;;;;;12.35;6.20;;;26.60;78.30;;;;;;5045913;28;20021;-48
2022/01/14 08:56:32;;;;;;;13.68;6.38;;;26.60;78.40;;;;;;5046021;28;20051;-43
2022/01/14 08:58:59;;;;;;;12.05;6.35;;;26.60;78.40;;;;;;5046101;28;20084;-46
2022/01/14 09:01:26;;;;;;;12.88;6.57;;;26.60;78.50;;;;;;5045692;28;20025;-46
2022/01/14 09:03:55;;;;;;;12.02;6.10;;;26.60;78.40;;;;;;5046067;28;20021;-48
2022/01/14 09:06:22;;;;;;;11.38;6.47;;;26.60;78.40;;;;;;5045885;28;20100;-48
2022/01/14 09:08:54;;;;;;;11.43;6.60;;;26.60;78.40;;;;;;5045551;28;20028;-42
2022/01/14 09:11:20;;;;;;;15.77;6.28;;;26.60;78.40;;;;;;5045768;28;20021;-41
2022/01/14 09:13:47;;;;;;;10.63;6.15;;;26.50;78.40;;;;;;5045627;28;20029;-42
2022/01/14 09:16:17;;;;;;;9.98;5.93;;;26.60;78.50;;;;;;5045196;28;20075;-46
2022/01/14 09:18:43;;;;;;;10.00;5.85;;;26.60;78.60;;;;;;5044508;28;20031;-49
2022/01/14 09:21:10;;;;;;;9.00;6.20;;;26.50;78.60;;;;;;5045317;28;20025;-49
2022/01/14 09:23:37;;;;;;;10.75;5.93;;;26.50;78.60;;;;;;5045238;28;20025;-42
2022/01/14 09:26:04;;;;;;;9.73;6.00;;;26.50;78.70;;;;;;5045336;28;20031;-42
2022/01/14 09:28:33;;;;;;;11.10;5.75;;;26.50;78.70;;;;;;5045248;28;20066;-45
2022/01/14 09:30:59;;;;;;;10.80;5.70;;;26.50;78.70;;;;;;5045161;28;20088;-46
2022/01/14 09:33:26;;;;;;;16.13;6.22;;;26.50;78.70;;;;;;5045309;28;20029;-42
2022/01/14 09:35:53;;;;;;;8.75;5.78;;;26.50;78.70;;;;;;5044918;28;20044;-52
2022/01/14 09:38:21;;;;;;;9.70;6.18;;;26.40;78.50;;;;;;5044933;28;20049;-48
2022/01/14 09:40:50;;;;;;;9.00;5.53;;;26.50;78.40;;;;;;5045149;28;20017;-48
2022/01/14 09:43:16;;;;;;;9.15;5.72;;;26.50;78.20;;;;;;5044902;28;20261;-49
2022/01/14 09:45:43;;;;;;;10.82;5.97;;;26.40;78.10;;;;;;5044908;28;20040;-44
2022/01/14 09:48:15;;;;;;;10.85;5.60;;;26.40;78.00;;;;;;5044803;28;20026;-48
2022/01/14 09:50:43;;;;;;;12.00;5.80;;;26.40;77.80;;;;;;5044846;28;20088;-52
2022/01/14 09:53:14;;;;;;;8.13;5.13;;;26.40;77.60;;;;;;5045323;28;20029;-41
2022/01/14 09:55:42;;;;;;;12.65;5.32;;;26.40;77.50;;;;;;5044657;28;20096;-46
2022/01/14 09:58:10;;;;;;;9.60;5.60;;;26.40;77.50;;;;;;5044968;28;20025;-49
2022/01/14 10:00:38;;;;;;;9.93;5.13;;;26.40;77.40;;;;;;5044807;28;20318;-48
2022/01/14 10:03:24;;;;;;;8.43;5.50;;;26.40;77.30;;;;;;5045018;28;20036;-46
2022/01/14 10:05:55;;;;;;;7.13;5.07;;;26.40;77.30;;;;;;5044615;28;20036;-44
2022/01/14 10:08:27;;;;;;;8.10;5.45;;;26.40;77.20;;;;;;5044451;28;20028;-43
2022/01/14 10:10:59;;;;;;;9.05;5.40;;;26.30;77.00;;;;;;5044258;28;20025;-55
2022/01/14 10:13:31;;;;;;;9.10;5.30;;;26.30;77.00;;;;;;5044704;28;20033;-52
2022/01/14 10:16:08;;;;;;;12.20;5.03;;;26.30;77.00;;;;;;5044467;28;20022;-46
2022/01/14 10:18:38;;;;;;;10.95;5.45;;;26.30;77.00;;;;;;5044389;28;20036;-47
2022/01/14 10:21:06;;;;;;;8.82;5.22;;;26.30;76.90;;;;;;5044354;28;20037;-45
2022/01/14 10:23:39;;;;;;;8.68;5.70;;;26.30;76.90;;;;;;5044223;28;20025;-50
2022/01/14 10:26:06;;;;;;;9.02;5.78;;;26.30;76.90;;;;;;5044295;28;20079;-48
2022/01/14 10:28:32;;;;;;;9.38;5.28;;;26.30;76.90;;;;;;5044123;28;20021;-51
2022/01/14 10:31:01;;;;;;;9.23;4.97;;;26.30;77.00;;;;;;5043691;28;20195;-47
2022/01/14 10:33:29;;;;;;;8.30;5.32;;;26.30;77.10;;;;;;5044089;28;20025;-44
2022/01/14 10:35:56;;;;;;;9.35;5.05;;;26.30;77.10;;;;;;5059363;28;20064;-45
2022/01/14 10:38:25;;;;;;;11.18;5.45;;;26.30;77.10;;;;;;5043970;28;20032;-51
2022/01/14 10:40:54;;;;;;;9.73;5.22;;;26.30;77.10;;;;;;5043844;28;20019;-48
2022/01/14 10:43:23;;;;;;;8.52;5.68;;;26.30;77.10;;;;;;5043970;28;20025;-49
2022/01/14 10:45:51;;;;;;;8.43;5.22;;;26.30;77.10;;;;;;5043857;28;20273;-48
2022/01/14 10:48:33;;;;;;;7.47;5.53;;;26.30;77.10;;;;;;5043833;28;20029;-51
2022/01/14 10:51:01;;;;;;;;;;;26.30;77.00;;;;;;5043966;28;20017;-58
2022/01/14 10:53:35;;;;;;;11.93;5.28;;;26.30;77.10;;;;;;5043824;28;19972;-47
2022/01/14 10:56:04;;;;;;;9.25;5.45;;;26.20;77.10;;;;;;5043589;28;20306;-52
2022/01/14 10:58:37;;;;;;;7.18;5.18;;;26.20;77.10;;;;;;5043847;28;20052;-45
2022/01/14 11:01:14;;;;;;;12.48;5.68;;;26.20;77.10;;;;;;5043783;28;20017;-48
2022/01/14 11:03:52;;;;;;;12.88;5.70;;;26.20;77.10;;;;;;5043793;28;20101;-45
2022/01/14 11:06:28;;;;;;;13.25;5.45;;;26.20;77.10;;;;;;5043937;28;20025;-47
2022/01/14 11:09:25;;;;;;;11.80;5.70;;;26.20;77.00;;;;;;5043509;28;20096;-51
2022/01/14 11:11:52;;;;;;;13.82;5.80;;;26.20;77.00;;;;;;5043685;28;20214;-51
2022/01/14 11:14:18;;;;;;;19.33;6.05;;;26.20;77.10;;;;;;5043529;28;20066;-49
2022/01/14 11:16:46;;;;;;;14.52;5.53;;;26.20;77.00;;;;;;5043613;28;20017;-49
2022/01/14 11:19:14;;;;;;;23.52;6.07;;;26.30;76.90;;;;;;5043463;28;20350;-48
2022/01/14 11:24:33;;;;;;;77.28;11.15;;;26.40;76.50;;;;;;5043525;28;20028;-52
2022/01/14 11:27:14;;;;;;;62.78;12.60;;;26.40;76.70;;;;;;5043618;28;20341;-48
2022/01/14 11:29:44;;;;;;;40.20;12.00;;;26.50;76.50;;;;;;5043343;28;20026;-49
2022/01/14 11:32:11;;;;;;;45.03;11.20;;;26.40;76.60;;;;;;5043717;28;20213;-52
2022/01/14 11:34:42;;;;;;;36.28;10.32;;;26.50;76.50;;;;;;5043576;28;20031;-45
2022/01/14 11:37:14;;;;;;;35.40;9.55;;;26.50;76.40;;;;;;5043518;28;20021;-45
2022/01/14 11:39:55;;;;;;;37.22;9.85;;;26.50;76.40;;;;;;5043409;28;20041;-46
2022/01/14 11:42:42;;;;;;;37.17;9.25;;;26.50;76.40;;;;;;5044200;28;20352;-46
2022/01/14 11:45:42;;;;;;;37.20;10.00;;;26.60;76.50;;;;;;5045567;28;20032;-46
2022/01/14 11:48:52;;;;;;;27.83;9.10;;;26.60;76.60;;;;;;5045923;28;20028;-46
2022/01/14 11:51:18;;;;;;;32.72;9.65;;;26.60;76.60;;;;;;5023628;28;20108;-53
2022/01/14 11:53:50;;;;;;;37.22;9.68;;;26.60;76.60;;;;;;5045399;28;20071;-47
2022/01/14 11:56:32;;;;;;;59.75;12.40;;;26.60;76.50;;;;;;5045349;28;20029;-50
2022/01/14 11:59:17;;;;;;;74.60;14.27;;;26.60;76.50;;;;;;5046225;28;20032;-51
2022/01/14 12:01:45;;;;;;;105.03;18.25;;;26.60;76.50;;;;;;5047160;28;20029;-50
2022/01/14 12:04:11;;;;;;;68.60;14.50;;;26.60;76.50;;;;;;5046894;28;20092;-45
2022/01/14 12:06:54;;;;;;;71.68;12.90;;;26.60;76.50;;;;;;5046944;28;20028;-50
2022/01/14 12:09:24;;;;;;;49.97;10.73;;;26.60;76.50;;;;;;5046761;28;20199;-47
2022/01/14 12:12:31;;;;;;;57.63;10.77;;;26.70;76.40;;;;;;5046814;28;20037;-48
2022/01/14 12:15:01;;;;;;;45.35;9.85;;;26.60;76.30;;;;;;5046478;28;20021;-50
2022/01/14 12:17:42;;;;;;;45.53;9.77;;;26.70;76.30;;;;;;5046922;28;20028;-55
2022/01/14 12:20:19;;;;;;;44.05;9.68;;;26.70;76.20;;;;;;5046647;28;20025;-49
2022/01/14 12:23:17;;;;;;;35.03;9.68;;;26.70;76.20;;;;;;5046769;28;20088;-49
2022/01/14 12:25:45;;;;;;;37.30;8.32;;;26.70;76.20;;;;;;5038597;28;20061;-49
2022/01/14 12:28:30;;;;;;;35.83;8.70;;;26.80;76.20;;;;;;5046959;28;20303;-44
2022/01/14 12:31:02;;;;;;;37.83;9.15;;;26.80;76.20;;;;;;5046193;28;20135;-43
2022/01/14 12:33:49;;;;;;;24.08;8.93;;;26.80;76.20;;;;;;5046425;28;20041;-48
2022/01/14 12:36:23;;;;;;;35.75;8.73;;;26.80;76.20;;;;;;5045944;28;20053;-44
2022/01/14 12:38:51;;;;;;;31.55;8.00;;;26.90;76.20;;;;;;5046165;28;20022;-47
2022/01/14 12:41:26;;;;;;;35.47;8.77;;;26.90;76.20;;;;;;5046088;28;20282;-47
2022/01/14 12:43:58;;;;;;;29.55;8.63;;;26.90;76.20;;;;;;5046039;28;20025;-54
2022/01/14 12:49:07;;;;;;;29.00;8.13;;;26.90;76.10;;;;;;5046092;28;20061;-48
2022/01/14 12:51:34;;;;;;;33.17;8.48;;;26.90;76.20;;;;;;5046204;28;20025;-50
2022/01/14 12:54:04;;;;;;;30.23;7.78;;;26.90;76.20;;;;;;5045635;28;20032;-49
2022/01/14 12:56:36;;;;;;;26.92;7.65;;;26.90;76.20;;;;;;5045883;28;20075;-48
2022/01/14 12:59:05;;;;;;;23.63;7.40;;;26.90;76.90;;;;;;5045964;28;20017;-45
2022/01/14 13:01:50;;;;;;;33.05;8.00;;;26.90;76.40;;;;;;5045748;28;20272;-47
2022/01/14 13:04:19;;;;;;;23.13;7.53;;;26.90;76.40;;;;;;5046186;28;20075;-56
2022/01/14 13:06:57;;;;;;;23.45;7.82;;;27.00;77.10;;;;;;5045828;28;20017;-47
2022/01/14 13:09:30;;;;;;;24.98;7.72;;;27.00;76.50;;;;;;5045799;28;20022;-47
2022/01/14 13:12:05;;;;;;;33.90;8.13;;;27.00;76.60;;;;;;5045641;28;20040;-46
2022/01/14 13:15:21;;;;;;;24.08;8.35;;;27.00;76.70;;;;;;5045780;28;20024;-51
2022/01/14 13:17:31;;;;;;;20.27;8.13;;;27.00;76.80;;;;;;5034858;28;20025;-44
2022/01/14 13:20:14;;;;;;;16.92;7.38;;;27.00;77.00;;;;;;5045532;28;20013;-45
2022/01/14 13:22:43;;;;;;;18.85;7.85;;;27.00;77.00;;;;;;5045883;28;20120;-45